sensor_id;sensor_type;location;lat;lon;timestamp;P1;durP1;ratioP1;P2;durP2;ratioP2
30874;SDS011;17581;43.222;27.924;2023-04-24T00:01:11;26.42;;;7.57;;
30874;SDS011;17581;43.222;27.924;2023-04-24T00:03:38;26.38;;;8.70;;
30874;SDS011;17581;43.222;27.924;2023-04-24T00:06:04;28.55;;;8.32;;
30874;SDS011;17581;43.222;27.924;2023-04-24T00:08:31;32.30;;;8.25;;
30874;SDS011;17581;43.222;27.924;2023-04-24T00:10:57;34.28;;;7.95;;
30874;SDS011;17581;43.222;27.924;2023-04-24T00:13:23;17.10;;;7.45;;
30874;SDS011;17581;43.222;27.924;2023-04-24T00:15:48;18.27;;;7.25;;
30874;SDS011;17581;43.222;27.924;2023-04-24T00:18:14;24.15;;;6.82;;
30874;SDS011;17581;43.222;27.924;2023-04-24T00:20:40;18.50;;;7.65;;
30874;SDS011;17581;43.222;27.924;2023-04-24T00:23:05;27.73;;;7.80;;
30874;SDS011;17581;43.222;27.924;2023-04-24T00:25:31;22.05;;;7.10;;
30874;SDS011;17581;43.222;27.924;2023-04-24T00:27:56;21.60;;;7.65;;
30874;SDS011;17581;43.222;27.924;2023-04-24T00:30:22;32.28;;;6.78;;
30874;SDS011;17581;43.222;27.924;2023-04-24T00:32:47;12.40;;;6.50;;
30874;SDS011;17581;43.222;27.924;2023-04-24T00:35:13;27.73;;;7.03;;
30874;SDS011;17581;43.222;27.924;2023-04-24T00:37:39;16.27;;;6.68;;
30874;SDS011;17581;43.222;27.924;2023-04-24T00:40:05;18.35;;;7.07;;
30874;SDS011;17581;43.222;27.924;2023-04-24T00:42:31;19.55;;;7.68;;
30874;SDS011;17581;43.222;27.924;2023-04-24T00:44:57;30.80;;;7.63;;
30874;SDS011;17581;43.222;27.924;2023-04-24T00:47:24;26.35;;;8.18;;
30874;SDS011;17581;43.222;27.924;2023-04-24T00:49:50;28.45;;;8.25;;
30874;SDS011;17581;43.222;27.924;2023-04-24T00:52:16;29.75;;;7.45;;
30874;SDS011;17581;43.222;27.924;2023-04-24T00:54:43;31.65;;;7.20;;
30874;SDS011;17581;43.222;27.924;2023-04-24T00:57:10;21.92;;;7.40;;
30874;SDS011;17581;43.222;27.924;2023-04-24T00:59:35;26.52;;;8.20;;
30874;SDS011;17581;43.222;27.924;2023-04-24T01:02:01;39.25;;;8.70;;
30874;SDS011;17581;43.222;27.924;2023-04-24T01:04:27;19.55;;;8.75;;
30874;SDS011;17581;43.222;27.924;2023-04-24T01:06:53;22.75;;;7.90;;
30874;SDS011;17581;43.222;27.924;2023-04-24T01:09:21;25.33;;;8.15;;
30874;SDS011;17581;43.222;27.924;2023-04-24T01:11:48;26.00;;;8.38;;
30874;SDS011;17581;43.222;27.924;2023-04-24T01:14:14;29.65;;;8.45;;
30874;SDS011;17581;43.222;27.924;2023-04-24T01:16:40;18.63;;;7.70;;
30874;SDS011;17581;43.222;27.924;2023-04-24T01:19:06;18.13;;;8.57;;
30874;SDS011;17581;43.222;27.924;2023-04-24T01:21:34;26.33;;;8.77;;
30874;SDS011;17581;43.222;27.924;2023-04-24T01:24:01;25.20;;;8.35;;
30874;SDS011;17581;43.222;27.924;2023-04-24T01:26:27;20.42;;;7.45;;
30874;SDS011;17581;43.222;27.924;2023-04-24T01:28:53;25.80;;;7.50;;
30874;SDS011;17581;43.222;27.924;2023-04-24T01:31:18;21.75;;;7.53;;
30874;SDS011;17581;43.222;27.924;2023-04-24T01:33:44;30.98;;;7.72;;
30874;SDS011;17581;43.222;27.924;2023-04-24T01:36:11;22.58;;;7.93;;
30874;SDS011;17581;43.222;27.924;2023-04-24T01:38:36;29.33;;;8.52;;
30874;SDS011;17581;43.222;27.924;2023-04-24T01:41:02;15.70;;;6.70;;
30874;SDS011;17581;43.222;27.924;2023-04-24T01:43:28;17.52;;;7.32;;
30874;SDS011;17581;43.222;27.924;2023-04-24T01:45:54;30.80;;;7.63;;
30874;SDS011;17581;43.222;27.924;2023-04-24T01:48:19;30.77;;;7.38;;
30874;SDS011;17581;43.222;27.924;2023-04-24T01:50:45;23.38;;;7.50;;
30874;SDS011;17581;43.222;27.924;2023-04-24T01:53:10;22.08;;;5.93;;
30874;SDS011;17581;43.222;27.924;2023-04-24T01:55:36;19.40;;;7.88;;
30874;SDS011;17581;43.222;27.924;2023-04-24T01:58:02;33.20;;;8.60;;
30874;SDS011;17581;43.222;27.924;2023-04-24T02:00:27;24.95;;;6.70;;
30874;SDS011;17581;43.222;27.924;2023-04-24T02:02:53;29.10;;;7.35;;
30874;SDS011;17581;43.222;27.924;2023-04-24T02:05:18;13.10;;;6.97;;
30874;SDS011;17581;43.222;27.924;2023-04-24T02:07:44;20.80;;;7.10;;
30874;SDS011;17581;43.222;27.924;2023-04-24T02:10:09;14.50;;;6.22;;
30874;SDS011;17581;43.222;27.924;2023-04-24T02:12:35;25.48;;;5.95;;
30874;SDS011;17581;43.222;27.924;2023-04-24T02:15:01;17.05;;;7.20;;
30874;SDS011;17581;43.222;27.924;2023-04-24T02:17:27;24.05;;;7.32;;
30874;SDS011;17581;43.222;27.924;2023-04-24T02:19:52;21.80;;;7.75;;
30874;SDS011;17581;43.222;27.924;2023-04-24T02:22:17;25.02;;;8.18;;
30874;SDS011;17581;43.222;27.924;2023-04-24T02:24:43;23.42;;;7.22;;
30874;SDS011;17581;43.222;27.924;2023-04-24T02:27:09;35.13;;;8.10;;
30874;SDS011;17581;43.222;27.924;2023-04-24T02:29:36;24.00;;;7.80;;
30874;SDS011;17581;43.222;27.924;2023-04-24T02:32:01;25.88;;;6.55;;
30874;SDS011;17581;43.222;27.924;2023-04-24T02:34:27;32.47;;;7.50;;
30874;SDS011;17581;43.222;27.924;2023-04-24T02:36:52;26.75;;;7.47;;
30874;SDS011;17581;43.222;27.924;2023-04-24T02:39:19;21.23;;;6.60;;
30874;SDS011;17581;43.222;27.924;2023-04-24T02:41:44;31.00;;;7.72;;
30874;SDS011;17581;43.222;27.924;2023-04-24T02:44:10;52.00;;;9.15;;
30874;SDS011;17581;43.222;27.924;2023-04-24T02:46:35;45.53;;;7.72;;
30874;SDS011;17581;43.222;27.924;2023-04-24T02:49:01;30.02;;;7.60;;
30874;SDS011;17581;43.222;27.924;2023-04-24T02:51:27;28.95;;;7.05;;
30874;SDS011;17581;43.222;27.924;2023-04-24T02:53:53;18.80;;;6.70;;
30874;SDS011;17581;43.222;27.924;2023-04-24T02:56:18;25.58;;;7.63;;
30874;SDS011;17581;43.222;27.924;2023-04-24T02:58:44;19.77;;;7.20;;
30874;SDS011;17581;43.222;27.924;2023-04-24T03:01:09;41.92;;;9.38;;
30874;SDS011;17581;43.222;27.924;2023-04-24T03:03:35;23.20;;;7.90;;
30874;SDS011;17581;43.222;27.924;2023-04-24T03:06:01;43.08;;;7.97;;
30874;SDS011;17581;43.222;27.924;2023-04-24T03:08:27;43.95;;;9.43;;
30874;SDS011;17581;43.222;27.924;2023-04-24T03:10:52;36.13;;;7.00;;
30874;SDS011;17581;43.222;27.924;2023-04-24T03:13:18;32.10;;;8.63;;
30874;SDS011;17581;43.222;27.924;2023-04-24T03:15:43;43.45;;;7.63;;
30874;SDS011;17581;43.222;27.924;2023-04-24T03:18:10;46.28;;;8.43;;
30874;SDS011;17581;43.222;27.924;2023-04-24T03:20:35;37.17;;;7.30;;
30874;SDS011;17581;43.222;27.924;2023-04-24T03:23:02;29.80;;;8.60;;
30874;SDS011;17581;43.222;27.924;2023-04-24T03:25:28;33.40;;;9.18;;
30874;SDS011;17581;43.222;27.924;2023-04-24T03:27:53;40.22;;;9.68;;
30874;SDS011;17581;43.222;27.924;2023-04-24T03:30:19;42.85;;;9.82;;
30874;SDS011;17581;43.222;27.924;2023-04-24T03:32:45;42.17;;;11.43;;
30874;SDS011;17581;43.222;27.924;2023-04-24T03:35:10;36.53;;;8.75;;
30874;SDS011;17581;43.222;27.924;2023-04-24T03:37:36;38.03;;;9.43;;
30874;SDS011;17581;43.222;27.924;2023-04-24T03:40:02;56.17;;;9.80;;
30874;SDS011;17581;43.222;27.924;2023-04-24T03:42:27;38.80;;;9.13;;
30874;SDS011;17581;43.222;27.924;2023-04-24T03:44:53;40.55;;;9.73;;
30874;SDS011;17581;43.222;27.924;2023-04-24T03:47:18;53.72;;;11.38;;
30874;SDS011;17581;43.222;27.924;2023-04-24T03:49:44;49.63;;;9.73;;
30874;SDS011;17581;43.222;27.924;2023-04-24T03:52:09;58.88;;;10.32;;
30874;SDS011;17581;43.222;27.924;2023-04-24T03:54:35;71.00;;;12.93;;
30874;SDS011;17581;43.222;27.924;2023-04-24T03:57:00;58.80;;;11.90;;
30874;SDS011;17581;43.222;27.924;2023-04-24T03:59:28;48.42;;;11.40;;
30874;SDS011;17581;43.222;27.924;2023-04-24T04:01:53;55.88;;;11.90;;
30874;SDS011;17581;43.222;27.924;2023-04-24T04:04:19;80.07;;;12.98;;
30874;SDS011;17581;43.222;27.924;2023-04-24T04:06:44;47.08;;;12.80;;
30874;SDS011;17581;43.222;27.924;2023-04-24T04:09:11;65.28;;;11.95;;
30874;SDS011;17581;43.222;27.924;2023-04-24T04:11:37;57.55;;;12.73;;
30874;SDS011;17581;43.222;27.924;2023-04-24T04:14:03;108.45;;;15.05;;
30874;SDS011;17581;43.222;27.924;2023-04-24T04:16:28;96.80;;;14.60;;
30874;SDS011;17581;43.222;27.924;2023-04-24T04:18:54;68.10;;;14.00;;
30874;SDS011;17581;43.222;27.924;2023-04-24T04:21:20;126.05;;;18.48;;
30874;SDS011;17581;43.222;27.924;2023-04-24T04:23:45;122.60;;;18.88;;
30874;SDS011;17581;43.222;27.924;2023-04-24T04:26:11;86.60;;;15.00;;
30874;SDS011;17581;43.222;27.924;2023-04-24T04:28:37;64.00;;;13.82;;
30874;SDS011;17581;43.222;27.924;2023-04-24T04:31:04;63.05;;;13.82;;
30874;SDS011;17581;43.222;27.924;2023-04-24T04:33:30;155.48;;;25.45;;
30874;SDS011;17581;43.222;27.924;2023-04-24T04:35:56;54.53;;;12.38;;
30874;SDS011;17581;43.222;27.924;2023-04-24T04:38:22;76.20;;;15.32;;
30874;SDS011;17581;43.222;27.924;2023-04-24T04:40:47;132.50;;;16.33;;
30874;SDS011;17581;43.222;27.924;2023-04-24T04:43:13;36.97;;;10.35;;
30874;SDS011;17581;43.222;27.924;2023-04-24T04:45:40;73.28;;;13.90;;
30874;SDS011;17581;43.222;27.924;2023-04-24T04:48:07;92.88;;;12.18;;
30874;SDS011;17581;43.222;27.924;2023-04-24T04:50:34;43.10;;;9.43;;
30874;SDS011;17581;43.222;27.924;2023-04-24T04:52:59;39.03;;;8.63;;
30874;SDS011;17581;43.222;27.924;2023-04-24T04:55:25;78.97;;;11.60;;
30874;SDS011;17581;43.222;27.924;2023-04-24T04:57:51;82.95;;;12.00;;
30874;SDS011;17581;43.222;27.924;2023-04-24T05:00:16;44.88;;;9.18;;
30874;SDS011;17581;43.222;27.924;2023-04-24T05:02:42;49.55;;;9.77;;
30874;SDS011;17581;43.222;27.924;2023-04-24T05:05:07;86.32;;;14.02;;
30874;SDS011;17581;43.222;27.924;2023-04-24T05:07:33;50.55;;;10.07;;
30874;SDS011;17581;43.222;27.924;2023-04-24T05:09:59;43.53;;;11.55;;
30874;SDS011;17581;43.222;27.924;2023-04-24T05:12:25;115.78;;;23.27;;
30874;SDS011;17581;43.222;27.924;2023-04-24T05:14:50;36.90;;;9.65;;
30874;SDS011;17581;43.222;27.924;2023-04-24T05:17:16;41.67;;;8.52;;
30874;SDS011;17581;43.222;27.924;2023-04-24T05:19:42;83.43;;;11.68;;
30874;SDS011;17581;43.222;27.924;2023-04-24T05:22:07;59.25;;;9.70;;
30874;SDS011;17581;43.222;27.924;2023-04-24T05:24:34;19.27;;;7.30;;
30874;SDS011;17581;43.222;27.924;2023-04-24T05:27:00;77.88;;;11.45;;
30874;SDS011;17581;43.222;27.924;2023-04-24T05:29:27;44.92;;;9.57;;
30874;SDS011;17581;43.222;27.924;2023-04-24T05:31:55;85.85;;;10.90;;
30874;SDS011;17581;43.222;27.924;2023-04-24T05:34:21;69.43;;;10.30;;
30874;SDS011;17581;43.222;27.924;2023-04-24T05:36:46;54.58;;;11.48;;
30874;SDS011;17581;43.222;27.924;2023-04-24T05:39:12;52.35;;;9.27;;
30874;SDS011;17581;43.222;27.924;2023-04-24T05:41:38;34.95;;;8.23;;
30874;SDS011;17581;43.222;27.924;2023-04-24T05:44:03;28.83;;;8.18;;
30874;SDS011;17581;43.222;27.924;2023-04-24T05:46:28;65.25;;;9.15;;
30874;SDS011;17581;43.222;27.924;2023-04-24T05:48:54;68.63;;;9.55;;
30874;SDS011;17581;43.222;27.924;2023-04-24T05:51:19;83.35;;;13.00;;
30874;SDS011;17581;43.222;27.924;2023-04-24T05:53:45;31.23;;;7.43;;
30874;SDS011;17581;43.222;27.924;2023-04-24T05:56:11;44.88;;;9.07;;
30874;SDS011;17581;43.222;27.924;2023-04-24T05:58:36;30.20;;;6.70;;
30874;SDS011;17581;43.222;27.924;2023-04-24T06:01:02;40.35;;;8.35;;
30874;SDS011;17581;43.222;27.924;2023-04-24T06:03:28;42.10;;;7.90;;
30874;SDS011;17581;43.222;27.924;2023-04-24T06:05:54;38.97;;;8.18;;
30874;SDS011;17581;43.222;27.924;2023-04-24T06:08:19;61.85;;;9.18;;
30874;SDS011;17581;43.222;27.924;2023-04-24T06:10:45;43.05;;;7.55;;
30874;SDS011;17581;43.222;27.924;2023-04-24T06:13:10;71.65;;;11.10;;
30874;SDS011;17581;43.222;27.924;2023-04-24T06:15:37;25.85;;;7.80;;
30874;SDS011;17581;43.222;27.924;2023-04-24T06:18:02;26.38;;;7.22;;
30874;SDS011;17581;43.222;27.924;2023-04-24T06:20:28;27.90;;;6.68;;
30874;SDS011;17581;43.222;27.924;2023-04-24T06:22:53;25.33;;;6.80;;
30874;SDS011;17581;43.222;27.924;2023-04-24T06:25:19;39.28;;;6.13;;
30874;SDS011;17581;43.222;27.924;2023-04-24T06:27:45;22.83;;;6.90;;
30874;SDS011;17581;43.222;27.924;2023-04-24T06:30:11;44.03;;;8.63;;
30874;SDS011;17581;43.222;27.924;2023-04-24T06:32:36;21.98;;;6.53;;
30874;SDS011;17581;43.222;27.924;2023-04-24T06:35:02;64.38;;;9.30;;
30874;SDS011;17581;43.222;27.924;2023-04-24T06:37:28;45.22;;;8.40;;
30874;SDS011;17581;43.222;27.924;2023-04-24T06:39:54;27.20;;;7.38;;
30874;SDS011;17581;43.222;27.924;2023-04-24T06:42:19;40.70;;;8.15;;
30874;SDS011;17581;43.222;27.924;2023-04-24T06:44:46;48.88;;;10.80;;
30874;SDS011;17581;43.222;27.924;2023-04-24T06:47:11;23.45;;;5.85;;
30874;SDS011;17581;43.222;27.924;2023-04-24T06:49:39;22.95;;;7.00;;
30874;SDS011;17581;43.222;27.924;2023-04-24T06:52:05;43.03;;;7.28;;
30874;SDS011;17581;43.222;27.924;2023-04-24T06:54:31;41.17;;;7.40;;
30874;SDS011;17581;43.222;27.924;2023-04-24T06:56:57;37.42;;;6.00;;
30874;SDS011;17581;43.222;27.924;2023-04-24T06:59:23;23.80;;;6.63;;
30874;SDS011;17581;43.222;27.924;2023-04-24T07:01:49;32.08;;;6.88;;
30874;SDS011;17581;43.222;27.924;2023-04-24T07:04:16;24.55;;;5.90;;
30874;SDS011;17581;43.222;27.924;2023-04-24T07:06:42;24.75;;;6.75;;
30874;SDS011;17581;43.222;27.924;2023-04-24T07:09:08;57.88;;;8.40;;
30874;SDS011;17581;43.222;27.924;2023-04-24T07:11:34;38.53;;;6.57;;
30874;SDS011;17581;43.222;27.924;2023-04-24T07:14:01;36.58;;;8.60;;
30874;SDS011;17581;43.222;27.924;2023-04-24T07:16:27;24.15;;;6.88;;
30874;SDS011;17581;43.222;27.924;2023-04-24T07:18:53;9.85;;;5.80;;
30874;SDS011;17581;43.222;27.924;2023-04-24T07:21:18;19.58;;;6.78;;
30874;SDS011;17581;43.222;27.924;2023-04-24T07:23:44;32.97;;;6.95;;
30874;SDS011;17581;43.222;27.924;2023-04-24T07:26:09;34.75;;;7.13;;
30874;SDS011;17581;43.222;27.924;2023-04-24T07:28:35;21.02;;;7.03;;
30874;SDS011;17581;43.222;27.924;2023-04-24T07:31:00;72.93;;;9.95;;
30874;SDS011;17581;43.222;27.924;2023-04-24T07:33:26;31.55;;;7.00;;
30874;SDS011;17581;43.222;27.924;2023-04-24T07:35:52;32.60;;;6.63;;
30874;SDS011;17581;43.222;27.924;2023-04-24T07:38:17;38.22;;;7.45;;
30874;SDS011;17581;43.222;27.924;2023-04-24T07:40:47;44.70;;;7.38;;
30874;SDS011;17581;43.222;27.924;2023-04-24T07:43:15;21.88;;;6.00;;
30874;SDS011;17581;43.222;27.924;2023-04-24T07:45:40;26.65;;;6.75;;
30874;SDS011;17581;43.222;27.924;2023-04-24T07:48:06;35.88;;;7.47;;
30874;SDS011;17581;43.222;27.924;2023-04-24T07:50:33;38.38;;;7.53;;
30874;SDS011;17581;43.222;27.924;2023-04-24T07:53:00;45.22;;;9.25;;
30874;SDS011;17581;43.222;27.924;2023-04-24T07:55:26;39.88;;;8.25;;
30874;SDS011;17581;43.222;27.924;2023-04-24T07:57:51;22.13;;;6.90;;
30874;SDS011;17581;43.222;27.924;2023-04-24T08:00:17;33.03;;;7.10;;
30874;SDS011;17581;43.222;27.924;2023-04-24T08:02:42;41.95;;;7.55;;
30874;SDS011;17581;43.222;27.924;2023-04-24T08:05:08;38.67;;;7.60;;
30874;SDS011;17581;43.222;27.924;2023-04-24T08:07:34;30.65;;;7.03;;
30874;SDS011;17581;43.222;27.924;2023-04-24T08:10:00;28.75;;;6.03;;
30874;SDS011;17581;43.222;27.924;2023-04-24T08:12:26;34.83;;;6.90;;
30874;SDS011;17581;43.222;27.924;2023-04-24T08:14:53;45.58;;;6.63;;
30874;SDS011;17581;43.222;27.924;2023-04-24T08:17:18;75.53;;;10.63;;
30874;SDS011;17581;43.222;27.924;2023-04-24T08:19:44;29.23;;;6.18;;
30874;SDS011;17581;43.222;27.924;2023-04-24T08:22:13;21.60;;;6.45;;
30874;SDS011;17581;43.222;27.924;2023-04-24T08:24:39;30.98;;;5.95;;
30874;SDS011;17581;43.222;27.924;2023-04-24T08:27:05;76.82;;;9.30;;
30874;SDS011;17581;43.222;27.924;2023-04-24T08:29:30;57.53;;;7.53;;
30874;SDS011;17581;43.222;27.924;2023-04-24T08:31:56;39.53;;;8.75;;
30874;SDS011;17581;43.222;27.924;2023-04-24T08:34:22;47.20;;;8.57;;
30874;SDS011;17581;43.222;27.924;2023-04-24T08:36:48;29.40;;;7.20;;
30874;SDS011;17581;43.222;27.924;2023-04-24T08:39:14;27.13;;;8.73;;
30874;SDS011;17581;43.222;27.924;2023-04-24T08:41:41;28.52;;;6.50;;
30874;SDS011;17581;43.222;27.924;2023-04-24T08:44:08;33.38;;;6.43;;
30874;SDS011;17581;43.222;27.924;2023-04-24T08:46:35;36.30;;;7.65;;
30874;SDS011;17581;43.222;27.924;2023-04-24T08:49:01;24.58;;;6.63;;
30874;SDS011;17581;43.222;27.924;2023-04-24T08:51:27;26.90;;;7.60;;
30874;SDS011;17581;43.222;27.924;2023-04-24T08:53:53;42.80;;;8.45;;
30874;SDS011;17581;43.222;27.924;2023-04-24T08:56:20;30.98;;;7.60;;
30874;SDS011;17581;43.222;27.924;2023-04-24T08:58:48;42.83;;;8.95;;
30874;SDS011;17581;43.222;27.924;2023-04-24T09:01:16;24.67;;;6.68;;
30874;SDS011;17581;43.222;27.924;2023-04-24T09:03:42;40.83;;;8.13;;
30874;SDS011;17581;43.222;27.924;2023-04-24T09:06:08;27.25;;;6.40;;
30874;SDS011;17581;43.222;27.924;2023-04-24T09:08:35;41.95;;;7.50;;
30874;SDS011;17581;43.222;27.924;2023-04-24T09:11:01;33.35;;;5.97;;
30874;SDS011;17581;43.222;27.924;2023-04-24T09:13:28;24.10;;;5.28;;
30874;SDS011;17581;43.222;27.924;2023-04-24T09:15:53;52.33;;;9.40;;
30874;SDS011;17581;43.222;27.924;2023-04-24T09:18:19;38.83;;;6.32;;
30874;SDS011;17581;43.222;27.924;2023-04-24T09:23:45;28.95;;;8.18;;
30874;SDS011;17581;43.222;27.924;2023-04-24T09:26:10;23.52;;;7.00;;
30874;SDS011;17581;43.222;27.924;2023-04-24T09:28:39;24.40;;;7.30;;
30874;SDS011;17581;43.222;27.924;2023-04-24T09:31:07;21.60;;;7.05;;
30874;SDS011;17581;43.222;27.924;2023-04-24T09:33:53;26.90;;;7.20;;
30874;SDS011;17581;43.222;27.924;2023-04-24T09:36:28;37.03;;;6.57;;
30874;SDS011;17581;43.222;27.924;2023-04-24T09:39:07;33.10;;;6.65;;
30874;SDS011;17581;43.222;27.924;2023-04-24T09:41:57;28.98;;;7.45;;
30874;SDS011;17581;43.222;27.924;2023-04-24T09:44:23;34.22;;;6.50;;
30874;SDS011;17581;43.222;27.924;2023-04-24T09:46:53;23.52;;;6.65;;
30874;SDS011;17581;43.222;27.924;2023-04-24T09:49:22;57.35;;;9.10;;
30874;SDS011;17581;43.222;27.924;2023-04-24T09:51:52;19.05;;;5.90;;
30874;SDS011;17581;43.222;27.924;2023-04-24T09:54:36;31.50;;;6.90;;
30874;SDS011;17581;43.222;27.924;2023-04-24T09:57:03;31.98;;;6.72;;
30874;SDS011;17581;43.222;27.924;2023-04-24T09:59:29;25.15;;;7.28;;
30874;SDS011;17581;43.222;27.924;2023-04-24T10:01:55;45.45;;;9.38;;
30874;SDS011;17581;43.222;27.924;2023-04-24T10:04:23;28.55;;;6.63;;
30874;SDS011;17581;43.222;27.924;2023-04-24T10:06:51;41.28;;;8.02;;
30874;SDS011;17581;43.222;27.924;2023-04-24T10:09:18;21.48;;;5.72;;
30874;SDS011;17581;43.222;27.924;2023-04-24T10:11:45;52.10;;;9.35;;
30874;SDS011;17581;43.222;27.924;2023-04-24T10:14:12;17.77;;;5.30;;
30874;SDS011;17581;43.222;27.924;2023-04-24T10:16:39;18.77;;;6.32;;
30874;SDS011;17581;43.222;27.924;2023-04-24T10:19:06;25.02;;;7.65;;
30874;SDS011;17581;43.222;27.924;2023-04-24T10:21:32;24.02;;;6.88;;
30874;SDS011;17581;43.222;27.924;2023-04-24T10:23:59;25.42;;;5.32;;
30874;SDS011;17581;43.222;27.924;2023-04-24T10:26:25;17.13;;;5.30;;
30874;SDS011;17581;43.222;27.924;2023-04-24T10:28:52;33.83;;;8.45;;
30874;SDS011;17581;43.222;27.924;2023-04-24T10:31:19;21.83;;;5.90;;
30874;SDS011;17581;43.222;27.924;2023-04-24T10:33:45;32.65;;;6.22;;
30874;SDS011;17581;43.222;27.924;2023-04-24T10:36:11;29.00;;;6.60;;
30874;SDS011;17581;43.222;27.924;2023-04-24T10:38:40;28.85;;;6.30;;
30874;SDS011;17581;43.222;27.924;2023-04-24T10:41:08;37.85;;;7.72;;
30874;SDS011;17581;43.222;27.924;2023-04-24T10:43:35;42.83;;;7.90;;
30874;SDS011;17581;43.222;27.924;2023-04-24T10:46:05;37.63;;;7.80;;
30874;SDS011;17581;43.222;27.924;2023-04-24T10:48:31;25.75;;;7.45;;
30874;SDS011;17581;43.222;27.924;2023-04-24T10:50:57;18.45;;;6.78;;
30874;SDS011;17581;43.222;27.924;2023-04-24T10:53:24;33.13;;;6.40;;
30874;SDS011;17581;43.222;27.924;2023-04-24T10:55:59;33.65;;;8.35;;
30874;SDS011;17581;43.222;27.924;2023-04-24T10:58:35;22.83;;;6.47;;
30874;SDS011;17581;43.222;27.924;2023-04-24T11:01:06;29.20;;;6.78;;
30874;SDS011;17581;43.222;27.924;2023-04-24T11:03:32;22.02;;;6.70;;
30874;SDS011;17581;43.222;27.924;2023-04-24T11:06:06;17.70;;;6.32;;
30874;SDS011;17581;43.222;27.924;2023-04-24T11:08:36;31.63;;;8.00;;
30874;SDS011;17581;43.222;27.924;2023-04-24T11:16:30;22.80;;;7.80;;
30874;SDS011;17581;43.222;27.924;2023-04-24T11:19:21;23.10;;;8.13;;
30874;SDS011;17581;43.222;27.924;2023-04-24T11:22:03;19.73;;;6.25;;
30874;SDS011;17581;43.222;27.924;2023-04-24T11:29:43;23.93;;;6.40;;
30874;SDS011;17581;43.222;27.924;2023-04-24T11:34:47;20.60;;;5.43;;
30874;SDS011;17581;43.222;27.924;2023-04-24T11:37:43;32.17;;;6.22;;
30874;SDS011;17581;43.222;27.924;2023-04-24T11:40:11;28.73;;;6.97;;
30874;SDS011;17581;43.222;27.924;2023-04-24T11:42:41;17.50;;;6.13;;
30874;SDS011;17581;43.222;27.924;2023-04-24T11:45:11;31.30;;;7.38;;
30874;SDS011;17581;43.222;27.924;2023-04-24T11:47:38;30.65;;;7.90;;
30874;SDS011;17581;43.222;27.924;2023-04-24T11:50:05;36.17;;;7.03;;
30874;SDS011;17581;43.222;27.924;2023-04-24T11:52:33;29.15;;;6.68;;
30874;SDS011;17581;43.222;27.924;2023-04-24T11:55:03;27.58;;;6.47;;
30874;SDS011;17581;43.222;27.924;2023-04-24T11:57:29;15.25;;;5.47;;
30874;SDS011;17581;43.222;27.924;2023-04-24T11:59:59;33.58;;;6.90;;
30874;SDS011;17581;43.222;27.924;2023-04-24T12:02:29;32.67;;;7.10;;
30874;SDS011;17581;43.222;27.924;2023-04-24T12:04:55;26.83;;;7.75;;
30874;SDS011;17581;43.222;27.924;2023-04-24T12:07:21;19.05;;;5.38;;
30874;SDS011;17581;43.222;27.924;2023-04-24T12:09:58;15.90;;;6.15;;
30874;SDS011;17581;43.222;27.924;2023-04-24T12:12:27;15.88;;;5.35;;
30874;SDS011;17581;43.222;27.924;2023-04-24T12:14:57;53.22;;;8.02;;
30874;SDS011;17581;43.222;27.924;2023-04-24T12:17:27;25.73;;;6.35;;
30874;SDS011;17581;43.222;27.924;2023-04-24T12:19:57;25.52;;;5.05;;
30874;SDS011;17581;43.222;27.924;2023-04-24T12:22:27;19.65;;;5.82;;
30874;SDS011;17581;43.222;27.924;2023-04-24T12:25:01;15.85;;;6.30;;
30874;SDS011;17581;43.222;27.924;2023-04-24T12:27:29;30.95;;;5.85;;
30874;SDS011;17581;43.222;27.924;2023-04-24T12:29:56;31.10;;;5.55;;
30874;SDS011;17581;43.222;27.924;2023-04-24T12:32:23;23.33;;;5.88;;
30874;SDS011;17581;43.222;27.924;2023-04-24T12:34:50;36.03;;;6.70;;
30874;SDS011;17581;43.222;27.924;2023-04-24T12:37:16;30.98;;;7.20;;
30874;SDS011;17581;43.222;27.924;2023-04-24T12:40:01;26.35;;;5.88;;
30874;SDS011;17581;43.222;27.924;2023-04-24T12:42:46;39.55;;;6.43;;
30874;SDS011;17581;43.222;27.924;2023-04-24T12:45:14;30.88;;;8.10;;
30874;SDS011;17581;43.222;27.924;2023-04-24T12:47:40;32.85;;;8.23;;
30874;SDS011;17581;43.222;27.924;2023-04-24T12:50:07;18.02;;;6.43;;
30874;SDS011;17581;43.222;27.924;2023-04-24T12:52:34;18.30;;;6.47;;
30874;SDS011;17581;43.222;27.924;2023-04-24T12:55:00;37.75;;;6.50;;
30874;SDS011;17581;43.222;27.924;2023-04-24T12:57:27;21.33;;;6.65;;
30874;SDS011;17581;43.222;27.924;2023-04-24T12:59:54;26.20;;;6.65;;
30874;SDS011;17581;43.222;27.924;2023-04-24T13:02:29;23.42;;;6.63;;
30874;SDS011;17581;43.222;27.924;2023-04-24T13:04:56;14.50;;;5.50;;
30874;SDS011;17581;43.222;27.924;2023-04-24T13:07:25;23.52;;;6.28;;
30874;SDS011;17581;43.222;27.924;2023-04-24T13:09:52;23.17;;;6.07;;
30874;SDS011;17581;43.222;27.924;2023-04-24T13:12:19;28.58;;;6.15;;
30874;SDS011;17581;43.222;27.924;2023-04-24T13:14:45;30.80;;;7.30;;
30874;SDS011;17581;43.222;27.924;2023-04-24T13:17:11;25.70;;;5.55;;
30874;SDS011;17581;43.222;27.924;2023-04-24T13:19:42;17.40;;;6.07;;
30874;SDS011;17581;43.222;27.924;2023-04-24T13:22:09;26.20;;;7.18;;
30874;SDS011;17581;43.222;27.924;2023-04-24T13:24:35;40.42;;;8.57;;
30874;SDS011;17581;43.222;27.924;2023-04-24T13:27:00;15.75;;;6.47;;
30874;SDS011;17581;43.222;27.924;2023-04-24T13:29:27;32.95;;;7.72;;
30874;SDS011;17581;43.222;27.924;2023-04-24T13:31:53;20.58;;;7.40;;
30874;SDS011;17581;43.222;27.924;2023-04-24T13:34:24;43.30;;;8.25;;
30874;SDS011;17581;43.222;27.924;2023-04-24T13:36:52;70.78;;;11.50;;
30874;SDS011;17581;43.222;27.924;2023-04-24T13:39:18;34.60;;;7.68;;
30874;SDS011;17581;43.222;27.924;2023-04-24T13:41:44;24.20;;;6.78;;
30874;SDS011;17581;43.222;27.924;2023-04-24T13:44:12;40.50;;;7.30;;
30874;SDS011;17581;43.222;27.924;2023-04-24T13:46:37;28.95;;;6.40;;
30874;SDS011;17581;43.222;27.924;2023-04-24T13:49:03;22.98;;;6.50;;
30874;SDS011;17581;43.222;27.924;2023-04-24T13:51:29;24.08;;;6.50;;
30874;SDS011;17581;43.222;27.924;2023-04-24T13:53:55;33.85;;;7.50;;
30874;SDS011;17581;43.222;27.924;2023-04-24T13:56:21;65.82;;;11.05;;
30874;SDS011;17581;43.222;27.924;2023-04-24T13:58:47;31.23;;;8.02;;
30874;SDS011;17581;43.222;27.924;2023-04-24T14:01:13;37.58;;;8.00;;
30874;SDS011;17581;43.222;27.924;2023-04-24T14:03:40;41.58;;;6.63;;
30874;SDS011;17581;43.222;27.924;2023-04-24T14:06:06;24.00;;;7.45;;
30874;SDS011;17581;43.222;27.924;2023-04-24T14:08:32;37.92;;;8.48;;
30874;SDS011;17581;43.222;27.924;2023-04-24T14:10:57;28.48;;;7.53;;
30874;SDS011;17581;43.222;27.924;2023-04-24T14:13:23;20.80;;;6.45;;
30874;SDS011;17581;43.222;27.924;2023-04-24T14:15:49;31.25;;;7.38;;
30874;SDS011;17581;43.222;27.924;2023-04-24T14:18:14;34.13;;;6.60;;
30874;SDS011;17581;43.222;27.924;2023-04-24T14:20:40;30.80;;;6.32;;
30874;SDS011;17581;43.222;27.924;2023-04-24T14:23:05;43.75;;;8.23;;
30874;SDS011;17581;43.222;27.924;2023-04-24T14:25:31;29.17;;;12.02;;
30874;SDS011;17581;43.222;27.924;2023-04-24T14:27:56;33.92;;;7.80;;
30874;SDS011;17581;43.222;27.924;2023-04-24T14:30:22;36.83;;;6.38;;
30874;SDS011;17581;43.222;27.924;2023-04-24T14:32:48;31.70;;;6.78;;
30874;SDS011;17581;43.222;27.924;2023-04-24T14:35:13;41.00;;;6.45;;